Terminal Aerodrome Forecast
Issued by NWS

Home | Current Version | Previous Version | Text Only | Print | Product List | Glossary On
Versions: 1 2 3 4 5 6 7 8 9 10 11 12 13 14 15 16 17 18 19 20 21 22 23 24 25 26 27 28 29 30 31 32 33 34 35 36 37 38 39 40 41 42
000
FTUS45 KBOU 211740
TAFBJC
TAF
KBJC 211740Z 2118/2218 VRB04KT P6SM FEW100
     FM212100 16004KT P6SM FEW080
     FM220100 VRB04KT P6SM FEW040 SCT080
     FM220600 25006KT P6SM SCT030 BKN050
     FM221100 34006KT P6SM VCFG BKN010 OVC030
     FM221600 VRB05KT P6SM VCSH OVC012=

USA.gov is the U.S. government's official web portal to all federal, state and local government web resources and services.